sensor_id;sensor_type;location;lat;lon;timestamp;P1;durP1;ratioP1;P2;durP2;ratioP2
7919;SDS011;18778;47.610;9.776;2023-07-31T00:02:23;4.33;;;2.10;;
7919;SDS011;18778;47.610;9.776;2023-07-31T00:04:48;2.33;;;2.13;;
7919;SDS011;18778;47.610;9.776;2023-07-31T00:07:14;2.87;;;2.50;;
7919;SDS011;18778;47.610;9.776;2023-07-31T00:09:40;2.40;;;2.20;;
7919;SDS011;18778;47.610;9.776;2023-07-31T00:12:05;2.13;;;1.93;;
7919;SDS011;18778;47.610;9.776;2023-07-31T00:14:31;4.33;;;2.20;;
7919;SDS011;18778;47.610;9.776;2023-07-31T00:16:57;2.63;;;2.43;;
7919;SDS011;18778;47.610;9.776;2023-07-31T00:19:22;3.57;;;2.13;;
7919;SDS011;18778;47.610;9.776;2023-07-31T00:21:48;2.90;;;2.40;;
7919;SDS011;18778;47.610;9.776;2023-07-31T00:24:14;3.27;;;2.40;;
7919;SDS011;18778;47.610;9.776;2023-07-31T00:26:39;2.50;;;2.30;;
7919;SDS011;18778;47.610;9.776;2023-07-31T00:29:05;4.33;;;2.60;;
7919;SDS011;18778;47.610;9.776;2023-07-31T00:31:30;2.60;;;2.40;;
7919;SDS011;18778;47.610;9.776;2023-07-31T00:33:56;3.60;;;2.43;;
7919;SDS011;18778;47.610;9.776;2023-07-31T00:36:21;2.80;;;2.50;;
7919;SDS011;18778;47.610;9.776;2023-07-31T00:38:47;3.47;;;2.53;;
7919;SDS011;18778;47.610;9.776;2023-07-31T00:41:13;2.63;;;2.20;;
7919;SDS011;18778;47.610;9.776;2023-07-31T00:43:38;2.43;;;2.20;;
7919;SDS011;18778;47.610;9.776;2023-07-31T00:46:04;3.67;;;2.70;;
7919;SDS011;18778;47.610;9.776;2023-07-31T00:48:30;4.33;;;2.20;;
7919;SDS011;18778;47.610;9.776;2023-07-31T00:50:56;2.67;;;2.40;;
7919;SDS011;18778;47.610;9.776;2023-07-31T00:53:21;2.77;;;2.40;;
7919;SDS011;18778;47.610;9.776;2023-07-31T00:55:47;3.07;;;2.60;;
7919;SDS011;18778;47.610;9.776;2023-07-31T00:58:13;3.67;;;2.60;;
7919;SDS011;18778;47.610;9.776;2023-07-31T01:00:38;3.40;;;2.70;;
7919;SDS011;18778;47.610;9.776;2023-07-31T01:03:04;3.27;;;2.77;;
7919;SDS011;18778;47.610;9.776;2023-07-31T01:05:43;3.87;;;3.40;;
7919;SDS011;18778;47.610;9.776;2023-07-31T01:08:33;4.80;;;3.40;;
7919;SDS011;18778;47.610;9.776;2023-07-31T01:13:40;3.20;;;2.90;;
7919;SDS011;18778;47.610;9.776;2023-07-31T01:16:07;3.73;;;3.30;;
7919;SDS011;18778;47.610;9.776;2023-07-31T01:18:32;3.50;;;2.93;;
7919;SDS011;18778;47.610;9.776;2023-07-31T01:21:03;3.10;;;2.80;;
7919;SDS011;18778;47.610;9.776;2023-07-31T01:27:15;2.67;;;2.23;;
7919;SDS011;18778;47.610;9.776;2023-07-31T01:29:51;4.67;;;2.30;;
7919;SDS011;18778;47.610;9.776;2023-07-31T01:32:25;3.97;;;2.40;;
7919;SDS011;18778;47.610;9.776;2023-07-31T01:34:53;2.80;;;2.20;;
7919;SDS011;18778;47.610;9.776;2023-07-31T01:37:19;3.70;;;3.00;;
7919;SDS011;18778;47.610;9.776;2023-07-31T01:39:45;7.60;;;3.37;;
7919;SDS011;18778;47.610;9.776;2023-07-31T01:42:11;3.47;;;3.17;;
7919;SDS011;18778;47.610;9.776;2023-07-31T01:44:36;5.00;;;3.10;;
7919;SDS011;18778;47.610;9.776;2023-07-31T01:47:02;5.13;;;3.37;;
7919;SDS011;18778;47.610;9.776;2023-07-31T01:49:28;4.87;;;3.07;;
7919;SDS011;18778;47.610;9.776;2023-07-31T01:51:53;3.93;;;3.53;;
7919;SDS011;18778;47.610;9.776;2023-07-31T01:54:19;4.33;;;3.13;;
7919;SDS011;18778;47.610;9.776;2023-07-31T01:56:44;5.87;;;3.50;;
7919;SDS011;18778;47.610;9.776;2023-07-31T01:59:10;3.37;;;3.07;;
7919;SDS011;18778;47.610;9.776;2023-07-31T02:01:35;4.03;;;3.37;;
7919;SDS011;18778;47.610;9.776;2023-07-31T02:04:01;4.13;;;3.40;;
7919;SDS011;18778;47.610;9.776;2023-07-31T02:06:26;4.57;;;3.70;;
7919;SDS011;18778;47.610;9.776;2023-07-31T02:08:52;5.53;;;3.40;;
7919;SDS011;18778;47.610;9.776;2023-07-31T02:11:18;4.10;;;3.10;;
7919;SDS011;18778;47.610;9.776;2023-07-31T02:13:43;4.67;;;3.20;;
7919;SDS011;18778;47.610;9.776;2023-07-31T02:16:09;4.90;;;3.27;;
7919;SDS011;18778;47.610;9.776;2023-07-31T02:18:35;4.10;;;3.20;;
7919;SDS011;18778;47.610;9.776;2023-07-31T02:21:00;4.23;;;3.53;;
7919;SDS011;18778;47.610;9.776;2023-07-31T02:23:26;3.43;;;3.13;;
7919;SDS011;18778;47.610;9.776;2023-07-31T02:25:51;3.33;;;3.10;;
7919;SDS011;18778;47.610;9.776;2023-07-31T02:28:17;4.00;;;3.70;;
7919;SDS011;18778;47.610;9.776;2023-07-31T02:30:46;4.63;;;3.83;;
7919;SDS011;18778;47.610;9.776;2023-07-31T02:33:11;4.37;;;3.53;;
7919;SDS011;18778;47.610;9.776;2023-07-31T02:35:37;8.13;;;3.13;;
7919;SDS011;18778;47.610;9.776;2023-07-31T02:38:02;5.37;;;3.57;;
7919;SDS011;18778;47.610;9.776;2023-07-31T02:40:28;4.20;;;3.13;;
7919;SDS011;18778;47.610;9.776;2023-07-31T02:42:53;6.40;;;3.10;;
7919;SDS011;18778;47.610;9.776;2023-07-31T02:45:19;4.07;;;3.50;;
7919;SDS011;18778;47.610;9.776;2023-07-31T02:47:44;4.60;;;3.40;;
7919;SDS011;18778;47.610;9.776;2023-07-31T02:50:10;4.97;;;3.40;;
7919;SDS011;18778;47.610;9.776;2023-07-31T02:52:35;3.70;;;3.40;;
7919;SDS011;18778;47.610;9.776;2023-07-31T02:55:01;6.70;;;3.27;;
7919;SDS011;18778;47.610;9.776;2023-07-31T02:57:27;4.43;;;3.40;;
7919;SDS011;18778;47.610;9.776;2023-07-31T02:59:52;3.63;;;3.00;;
7919;SDS011;18778;47.610;9.776;2023-07-31T03:02:18;3.23;;;2.90;;
7919;SDS011;18778;47.610;9.776;2023-07-31T03:04:43;5.90;;;3.40;;
7919;SDS011;18778;47.610;9.776;2023-07-31T03:07:09;3.37;;;3.00;;
7919;SDS011;18778;47.610;9.776;2023-07-31T03:09:35;4.83;;;3.00;;
7919;SDS011;18778;47.610;9.776;2023-07-31T03:12:00;4.27;;;2.90;;
7919;SDS011;18778;47.610;9.776;2023-07-31T03:14:26;6.30;;;3.20;;
7919;SDS011;18778;47.610;9.776;2023-07-31T03:16:51;3.87;;;2.93;;
7919;SDS011;18778;47.610;9.776;2023-07-31T03:19:17;8.27;;;3.40;;
7919;SDS011;18778;47.610;9.776;2023-07-31T03:21:43;2.83;;;2.63;;
7919;SDS011;18778;47.610;9.776;2023-07-31T03:24:08;3.07;;;2.73;;
7919;SDS011;18778;47.610;9.776;2023-07-31T03:26:34;3.77;;;2.67;;
7919;SDS011;18778;47.610;9.776;2023-07-31T03:29:00;4.80;;;3.03;;
7919;SDS011;18778;47.610;9.776;2023-07-31T03:31:25;3.90;;;2.90;;
7919;SDS011;18778;47.610;9.776;2023-07-31T03:33:51;3.50;;;2.80;;
7919;SDS011;18778;47.610;9.776;2023-07-31T03:36:16;3.03;;;2.73;;
7919;SDS011;18778;47.610;9.776;2023-07-31T03:38:42;6.30;;;3.00;;
7919;SDS011;18778;47.610;9.776;2023-07-31T03:41:08;6.23;;;2.70;;
7919;SDS011;18778;47.610;9.776;2023-07-31T03:43:35;3.33;;;3.03;;
7919;SDS011;18778;47.610;9.776;2023-07-31T03:46:00;8.60;;;3.20;;
7919;SDS011;18778;47.610;9.776;2023-07-31T03:48:27;4.90;;;3.20;;
7919;SDS011;18778;47.610;9.776;2023-07-31T03:50:53;4.43;;;2.80;;
7919;SDS011;18778;47.610;9.776;2023-07-31T03:53:18;4.03;;;2.90;;
7919;SDS011;18778;47.610;9.776;2023-07-31T03:55:44;3.37;;;2.70;;
7919;SDS011;18778;47.610;9.776;2023-07-31T03:58:10;4.80;;;3.33;;
7919;SDS011;18778;47.610;9.776;2023-07-31T04:00:35;3.87;;;3.30;;
7919;SDS011;18778;47.610;9.776;2023-07-31T04:03:01;3.40;;;3.10;;
7919;SDS011;18778;47.610;9.776;2023-07-31T04:05:26;4.07;;;2.93;;
7919;SDS011;18778;47.610;9.776;2023-07-31T04:07:52;5.23;;;2.90;;
7919;SDS011;18778;47.610;9.776;2023-07-31T04:10:18;4.00;;;3.40;;
7919;SDS011;18778;47.610;9.776;2023-07-31T04:12:44;3.20;;;2.90;;
7919;SDS011;18778;47.610;9.776;2023-07-31T04:15:09;3.10;;;2.80;;
7919;SDS011;18778;47.610;9.776;2023-07-31T04:17:35;3.00;;;2.80;;
7919;SDS011;18778;47.610;9.776;2023-07-31T04:20:00;3.70;;;2.50;;
7919;SDS011;18778;47.610;9.776;2023-07-31T04:22:26;3.00;;;2.80;;
7919;SDS011;18778;47.610;9.776;2023-07-31T04:24:52;4.23;;;2.90;;
7919;SDS011;18778;47.610;9.776;2023-07-31T04:27:17;6.23;;;3.37;;
7919;SDS011;18778;47.610;9.776;2023-07-31T04:29:43;4.07;;;2.70;;
7919;SDS011;18778;47.610;9.776;2023-07-31T04:32:10;4.17;;;3.10;;
7919;SDS011;18778;47.610;9.776;2023-07-31T04:34:36;4.00;;;3.07;;
7919;SDS011;18778;47.610;9.776;2023-07-31T04:37:02;6.17;;;3.27;;
7919;SDS011;18778;47.610;9.776;2023-07-31T04:39:28;3.83;;;3.00;;
7919;SDS011;18778;47.610;9.776;2023-07-31T04:41:53;4.07;;;2.90;;
7919;SDS011;18778;47.610;9.776;2023-07-31T04:44:19;3.20;;;2.90;;
7919;SDS011;18778;47.610;9.776;2023-07-31T04:46:44;7.43;;;3.37;;
7919;SDS011;18778;47.610;9.776;2023-07-31T04:49:10;3.13;;;2.83;;
7919;SDS011;18778;47.610;9.776;2023-07-31T04:51:36;5.43;;;2.87;;
7919;SDS011;18778;47.610;9.776;2023-07-31T04:54:02;5.67;;;3.23;;
7919;SDS011;18778;47.610;9.776;2023-07-31T04:56:27;3.63;;;3.20;;
7919;SDS011;18778;47.610;9.776;2023-07-31T04:58:53;4.67;;;3.00;;
7919;SDS011;18778;47.610;9.776;2023-07-31T05:01:19;6.47;;;3.93;;
7919;SDS011;18778;47.610;9.776;2023-07-31T05:03:45;3.67;;;3.37;;
7919;SDS011;18778;47.610;9.776;2023-07-31T05:06:11;4.63;;;3.37;;
7919;SDS011;18778;47.610;9.776;2023-07-31T05:08:38;4.67;;;3.23;;
7919;SDS011;18778;47.610;9.776;2023-07-31T05:11:03;3.67;;;3.30;;
7919;SDS011;18778;47.610;9.776;2023-07-31T05:13:29;5.60;;;3.20;;
7919;SDS011;18778;47.610;9.776;2023-07-31T05:15:55;2.73;;;2.53;;
7919;SDS011;18778;47.610;9.776;2023-07-31T05:18:20;5.73;;;3.13;;
7919;SDS011;18778;47.610;9.776;2023-07-31T05:20:46;5.87;;;2.53;;
7919;SDS011;18778;47.610;9.776;2023-07-31T05:23:11;6.60;;;2.80;;
7919;SDS011;18778;47.610;9.776;2023-07-31T05:25:37;2.60;;;2.40;;
7919;SDS011;18778;47.610;9.776;2023-07-31T05:28:02;3.50;;;2.40;;
7919;SDS011;18778;47.610;9.776;2023-07-31T05:30:29;3.37;;;2.53;;
7919;SDS011;18778;47.610;9.776;2023-07-31T05:32:55;7.53;;;2.77;;
7919;SDS011;18778;47.610;9.776;2023-07-31T05:35:21;4.37;;;2.90;;
7919;SDS011;18778;47.610;9.776;2023-07-31T05:37:47;3.90;;;2.60;;
7919;SDS011;18778;47.610;9.776;2023-07-31T05:40:12;3.53;;;2.47;;
7919;SDS011;18778;47.610;9.776;2023-07-31T05:42:38;2.87;;;2.40;;
7919;SDS011;18778;47.610;9.776;2023-07-31T05:45:04;3.00;;;2.30;;
7919;SDS011;18778;47.610;9.776;2023-07-31T05:47:30;3.87;;;2.50;;
7919;SDS011;18778;47.610;9.776;2023-07-31T05:49:56;3.07;;;2.60;;
7919;SDS011;18778;47.610;9.776;2023-07-31T05:52:21;4.17;;;2.17;;
7919;SDS011;18778;47.610;9.776;2023-07-31T05:54:47;6.30;;;2.27;;
7919;SDS011;18778;47.610;9.776;2023-07-31T05:57:12;4.47;;;2.60;;
7919;SDS011;18778;47.610;9.776;2023-07-31T05:59:38;5.07;;;2.20;;
7919;SDS011;18778;47.610;9.776;2023-07-31T06:02:04;5.93;;;2.73;;
7919;SDS011;18778;47.610;9.776;2023-07-31T06:04:29;4.27;;;2.57;;
7919;SDS011;18778;47.610;9.776;2023-07-31T06:06:55;3.13;;;2.10;;
7919;SDS011;18778;47.610;9.776;2023-07-31T06:09:21;5.07;;;2.53;;
7919;SDS011;18778;47.610;9.776;2023-07-31T06:11:47;3.23;;;2.00;;
7919;SDS011;18778;47.610;9.776;2023-07-31T06:14:12;3.00;;;2.00;;
7919;SDS011;18778;47.610;9.776;2023-07-31T06:16:38;4.10;;;2.07;;
7919;SDS011;18778;47.610;9.776;2023-07-31T06:19:03;4.27;;;1.93;;
7919;SDS011;18778;47.610;9.776;2023-07-31T06:21:29;4.40;;;2.43;;
7919;SDS011;18778;47.610;9.776;2023-07-31T06:23:56;3.80;;;2.40;;
7919;SDS011;18778;47.610;9.776;2023-07-31T06:26:21;3.57;;;2.07;;
7919;SDS011;18778;47.610;9.776;2023-07-31T06:28:47;4.03;;;2.37;;
7919;SDS011;18778;47.610;9.776;2023-07-31T06:31:12;3.07;;;2.33;;
7919;SDS011;18778;47.610;9.776;2023-07-31T06:33:38;2.47;;;2.00;;
7919;SDS011;18778;47.610;9.776;2023-07-31T06:36:03;4.47;;;2.20;;
7919;SDS011;18778;47.610;9.776;2023-07-31T06:38:29;4.53;;;2.20;;
7919;SDS011;18778;47.610;9.776;2023-07-31T06:40:55;5.10;;;2.00;;
7919;SDS011;18778;47.610;9.776;2023-07-31T06:43:20;3.90;;;2.40;;
7919;SDS011;18778;47.610;9.776;2023-07-31T06:45:46;3.93;;;2.23;;
7919;SDS011;18778;47.610;9.776;2023-07-31T06:48:13;3.47;;;2.20;;
7919;SDS011;18778;47.610;9.776;2023-07-31T06:50:39;2.60;;;2.00;;
7919;SDS011;18778;47.610;9.776;2023-07-31T06:53:04;2.13;;;1.93;;
7919;SDS011;18778;47.610;9.776;2023-07-31T06:55:30;3.40;;;2.17;;
7919;SDS011;18778;47.610;9.776;2023-07-31T06:57:56;3.73;;;2.50;;
7919;SDS011;18778;47.610;9.776;2023-07-31T07:00:22;2.90;;;2.20;;
7919;SDS011;18778;47.610;9.776;2023-07-31T07:02:48;3.87;;;2.50;;
7919;SDS011;18778;47.610;9.776;2023-07-31T07:05:14;2.43;;;1.90;;
7919;SDS011;18778;47.610;9.776;2023-07-31T07:07:41;4.47;;;1.90;;
7919;SDS011;18778;47.610;9.776;2023-07-31T07:10:07;4.67;;;2.20;;
7919;SDS011;18778;47.610;9.776;2023-07-31T07:12:33;3.57;;;2.07;;
7919;SDS011;18778;47.610;9.776;2023-07-31T07:14:59;2.37;;;2.00;;
7919;SDS011;18778;47.610;9.776;2023-07-31T07:17:28;5.33;;;1.80;;
7919;SDS011;18778;47.610;9.776;2023-07-31T07:19:56;4.07;;;2.03;;
7919;SDS011;18778;47.610;9.776;2023-07-31T07:22:22;2.10;;;1.90;;
7919;SDS011;18778;47.610;9.776;2023-07-31T07:24:47;3.20;;;1.90;;
7919;SDS011;18778;47.610;9.776;2023-07-31T07:27:13;2.80;;;2.10;;
7919;SDS011;18778;47.610;9.776;2023-07-31T07:29:39;3.97;;;2.13;;
7919;SDS011;18778;47.610;9.776;2023-07-31T07:32:05;3.97;;;2.10;;
7919;SDS011;18778;47.610;9.776;2023-07-31T07:34:31;5.53;;;2.13;;
7919;SDS011;18778;47.610;9.776;2023-07-31T07:36:57;3.50;;;2.00;;
7919;SDS011;18778;47.610;9.776;2023-07-31T07:39:22;3.17;;;1.80;;
7919;SDS011;18778;47.610;9.776;2023-07-31T07:41:48;2.17;;;1.97;;
7919;SDS011;18778;47.610;9.776;2023-07-31T07:44:15;4.23;;;2.17;;
7919;SDS011;18778;47.610;9.776;2023-07-31T07:46:40;4.53;;;1.97;;
7919;SDS011;18778;47.610;9.776;2023-07-31T07:49:06;5.13;;;2.03;;
7919;SDS011;18778;47.610;9.776;2023-07-31T07:51:31;3.47;;;2.00;;
7919;SDS011;18778;47.610;9.776;2023-07-31T07:54:03;3.23;;;1.87;;
7919;SDS011;18778;47.610;9.776;2023-07-31T07:56:28;5.73;;;2.10;;
7919;SDS011;18778;47.610;9.776;2023-07-31T07:58:54;2.10;;;1.70;;
7919;SDS011;18778;47.610;9.776;2023-07-31T08:01:20;4.27;;;2.20;;
7919;SDS011;18778;47.610;9.776;2023-07-31T08:03:46;1.77;;;1.67;;
7919;SDS011;18778;47.610;9.776;2023-07-31T08:06:12;4.33;;;1.83;;
7919;SDS011;18778;47.610;9.776;2023-07-31T08:08:39;4.63;;;1.93;;
7919;SDS011;18778;47.610;9.776;2023-07-31T08:11:04;3.27;;;2.03;;
7919;SDS011;18778;47.610;9.776;2023-07-31T08:13:30;2.40;;;1.67;;
7919;SDS011;18778;47.610;9.776;2023-07-31T08:15:56;3.23;;;2.00;;
7919;SDS011;18778;47.610;9.776;2023-07-31T08:18:22;3.37;;;1.97;;
7919;SDS011;18778;47.610;9.776;2023-07-31T08:20:47;2.77;;;1.80;;
7919;SDS011;18778;47.610;9.776;2023-07-31T08:23:13;3.60;;;2.20;;
7919;SDS011;18778;47.610;9.776;2023-07-31T08:25:38;4.40;;;2.00;;
7919;SDS011;18778;47.610;9.776;2023-07-31T08:28:05;3.50;;;2.20;;
7919;SDS011;18778;47.610;9.776;2023-07-31T08:30:31;3.80;;;1.77;;
7919;SDS011;18778;47.610;9.776;2023-07-31T08:32:58;3.13;;;1.93;;
7919;SDS011;18778;47.610;9.776;2023-07-31T08:35:24;4.00;;;1.80;;
7919;SDS011;18778;47.610;9.776;2023-07-31T08:37:49;7.80;;;2.23;;
7919;SDS011;18778;47.610;9.776;2023-07-31T08:40:15;3.20;;;1.90;;
7919;SDS011;18778;47.610;9.776;2023-07-31T08:42:44;4.40;;;2.00;;
7919;SDS011;18778;47.610;9.776;2023-07-31T08:45:14;4.33;;;2.00;;
7919;SDS011;18778;47.610;9.776;2023-07-31T08:47:42;2.93;;;1.90;;
7919;SDS011;18778;47.610;9.776;2023-07-31T08:50:12;3.27;;;1.87;;
7919;SDS011;18778;47.610;9.776;2023-07-31T08:52:39;4.10;;;2.10;;
7919;SDS011;18778;47.610;9.776;2023-07-31T08:55:05;5.27;;;1.90;;
7919;SDS011;18778;47.610;9.776;2023-07-31T08:57:32;3.50;;;2.10;;
7919;SDS011;18778;47.610;9.776;2023-07-31T08:59:59;3.23;;;2.17;;
7919;SDS011;18778;47.610;9.776;2023-07-31T09:02:26;2.93;;;1.90;;
7919;SDS011;18778;47.610;9.776;2023-07-31T09:05:02;3.23;;;1.90;;
7919;SDS011;18778;47.610;9.776;2023-07-31T09:07:30;3.23;;;2.10;;
7919;SDS011;18778;47.610;9.776;2023-07-31T09:09:57;4.63;;;2.10;;
7919;SDS011;18778;47.610;9.776;2023-07-31T09:12:23;3.60;;;2.10;;
7919;SDS011;18778;47.610;9.776;2023-07-31T09:14:50;4.13;;;2.10;;
7919;SDS011;18778;47.610;9.776;2023-07-31T09:17:15;3.00;;;2.00;;
7919;SDS011;18778;47.610;9.776;2023-07-31T09:19:53;6.03;;;2.70;;
7919;SDS011;18778;47.610;9.776;2023-07-31T09:22:18;1.90;;;1.80;;
7919;SDS011;18778;47.610;9.776;2023-07-31T09:25:02;4.80;;;2.63;;
7919;SDS011;18778;47.610;9.776;2023-07-31T09:30:25;3.57;;;2.23;;
7919;SDS011;18778;47.610;9.776;2023-07-31T09:32:52;4.63;;;2.07;;
7919;SDS011;18778;47.610;9.776;2023-07-31T09:35:32;2.50;;;2.10;;
7919;SDS011;18778;47.610;9.776;2023-07-31T09:38:00;3.77;;;2.20;;
7919;SDS011;18778;47.610;9.776;2023-07-31T09:40:32;3.93;;;2.33;;
7919;SDS011;18778;47.610;9.776;2023-07-31T09:43:05;4.50;;;2.10;;
7919;SDS011;18778;47.610;9.776;2023-07-31T09:45:39;3.17;;;1.97;;
7919;SDS011;18778;47.610;9.776;2023-07-31T09:48:10;3.00;;;2.10;;
7919;SDS011;18778;47.610;9.776;2023-07-31T09:50:43;3.80;;;2.13;;
7919;SDS011;18778;47.610;9.776;2023-07-31T09:53:13;3.43;;;2.30;;
7919;SDS011;18778;47.610;9.776;2023-07-31T09:55:40;5.00;;;2.17;;
7919;SDS011;18778;47.610;9.776;2023-07-31T09:58:07;3.13;;;2.17;;
7919;SDS011;18778;47.610;9.776;2023-07-31T10:00:34;3.90;;;2.60;;
7919;SDS011;18778;47.610;9.776;2023-07-31T10:03:07;5.13;;;2.27;;
7919;SDS011;18778;47.610;9.776;2023-07-31T10:05:34;4.07;;;2.10;;
7919;SDS011;18778;47.610;9.776;2023-07-31T10:08:21;3.57;;;2.83;;
7919;SDS011;18778;47.610;9.776;2023-07-31T10:10:54;3.87;;;2.10;;
7919;SDS011;18778;47.610;9.776;2023-07-31T10:13:22;4.70;;;2.07;;
7919;SDS011;18778;47.610;9.776;2023-07-31T10:15:48;3.93;;;2.10;;
7919;SDS011;18778;47.610;9.776;2023-07-31T10:18:13;3.27;;;2.43;;
7919;SDS011;18778;47.610;9.776;2023-07-31T10:20:41;3.93;;;2.00;;
7919;SDS011;18778;47.610;9.776;2023-07-31T10:23:07;3.13;;;1.93;;
7919;SDS011;18778;47.610;9.776;2023-07-31T10:25:33;2.70;;;1.87;;
7919;SDS011;18778;47.610;9.776;2023-07-31T10:28:00;7.03;;;2.30;;
7919;SDS011;18778;47.610;9.776;2023-07-31T10:30:27;2.43;;;2.00;;
7919;SDS011;18778;47.610;9.776;2023-07-31T10:32:55;5.97;;;2.43;;
7919;SDS011;18778;47.610;9.776;2023-07-31T10:35:22;7.17;;;2.20;;
7919;SDS011;18778;47.610;9.776;2023-07-31T10:37:48;3.83;;;1.90;;
7919;SDS011;18778;47.610;9.776;2023-07-31T10:40:17;3.90;;;2.30;;
7919;SDS011;18778;47.610;9.776;2023-07-31T10:45:36;1.80;;;1.70;;
7919;SDS011;18778;47.610;9.776;2023-07-31T10:48:07;3.70;;;2.20;;
7919;SDS011;18778;47.610;9.776;2023-07-31T10:50:47;3.13;;;2.20;;
7919;SDS011;18778;47.610;9.776;2023-07-31T10:53:25;5.57;;;2.50;;
7919;SDS011;18778;47.610;9.776;2023-07-31T10:56:01;2.97;;;2.00;;
7919;SDS011;18778;47.610;9.776;2023-07-31T10:58:28;4.03;;;2.20;;
7919;SDS011;18778;47.610;9.776;2023-07-31T11:00:57;4.73;;;2.20;;
7919;SDS011;18778;47.610;9.776;2023-07-31T11:03:25;4.87;;;2.23;;
7919;SDS011;18778;47.610;9.776;2023-07-31T11:05:53;3.37;;;2.10;;
7919;SDS011;18778;47.610;9.776;2023-07-31T11:08:29;5.70;;;2.20;;
7919;SDS011;18778;47.610;9.776;2023-07-31T11:13:30;5.50;;;2.37;;
7919;SDS011;18778;47.610;9.776;2023-07-31T11:16:15;4.67;;;2.70;;
7919;SDS011;18778;47.610;9.776;2023-07-31T11:18:42;4.20;;;2.30;;
7919;SDS011;18778;47.610;9.776;2023-07-31T11:21:13;3.70;;;2.07;;
7919;SDS011;18778;47.610;9.776;2023-07-31T11:23:39;4.47;;;2.33;;
7919;SDS011;18778;47.610;9.776;2023-07-31T11:26:06;2.57;;;1.90;;
7919;SDS011;18778;47.610;9.776;2023-07-31T11:28:32;4.20;;;2.20;;
7919;SDS011;18778;47.610;9.776;2023-07-31T11:30:59;2.10;;;1.80;;
7919;SDS011;18778;47.610;9.776;2023-07-31T11:33:24;2.87;;;2.10;;
7919;SDS011;18778;47.610;9.776;2023-07-31T11:35:50;2.83;;;1.80;;
7919;SDS011;18778;47.610;9.776;2023-07-31T11:38:26;4.90;;;2.10;;
7919;SDS011;18778;47.610;9.776;2023-07-31T11:40:53;3.90;;;2.13;;
7919;SDS011;18778;47.610;9.776;2023-07-31T11:43:21;3.10;;;2.17;;
7919;SDS011;18778;47.610;9.776;2023-07-31T11:45:58;2.07;;;1.60;;
7919;SDS011;18778;47.610;9.776;2023-07-31T11:48:31;3.43;;;2.00;;
7919;SDS011;18778;47.610;9.776;2023-07-31T11:51:07;2.80;;;1.87;;
7919;SDS011;18778;47.610;9.776;2023-07-31T11:53:45;3.67;;;2.13;;
7919;SDS011;18778;47.610;9.776;2023-07-31T11:56:15;2.97;;;2.10;;
7919;SDS011;18778;47.610;9.776;2023-07-31T11:58:43;3.07;;;2.07;;
7919;SDS011;18778;47.610;9.776;2023-07-31T12:01:12;2.83;;;2.10;;
7919;SDS011;18778;47.610;9.776;2023-07-31T12:03:40;3.67;;;2.27;;
7919;SDS011;18778;47.610;9.776;2023-07-31T12:06:07;4.17;;;2.20;;
7919;SDS011;18778;47.610;9.776;2023-07-31T12:08:33;2.93;;;2.10;;
7919;SDS011;18778;47.610;9.776;2023-07-31T12:11:05;2.33;;;1.90;;
7919;SDS011;18778;47.610;9.776;2023-07-31T12:13:34;3.17;;;2.00;;
7919;SDS011;18778;47.610;9.776;2023-07-31T12:16:00;3.60;;;2.07;;
7919;SDS011;18778;47.610;9.776;2023-07-31T12:18:29;2.97;;;1.93;;
7919;SDS011;18778;47.610;9.776;2023-07-31T12:21:04;3.53;;;2.17;;
7919;SDS011;18778;47.610;9.776;2023-07-31T12:23:32;2.13;;;1.90;;
7919;SDS011;18778;47.610;9.776;2023-07-31T12:28:37;2.10;;;1.80;;
7919;SDS011;18778;47.610;9.776;2023-07-31T12:31:12;6.50;;;2.20;;
7919;SDS011;18778;47.610;9.776;2023-07-31T12:33:39;1.97;;;1.73;;
7919;SDS011;18778;47.610;9.776;2023-07-31T12:36:09;2.83;;;1.57;;
7919;SDS011;18778;47.610;9.776;2023-07-31T12:38:36;4.47;;;2.00;;
7919;SDS011;18778;47.610;9.776;2023-07-31T12:41:02;2.37;;;1.90;;
7919;SDS011;18778;47.610;9.776;2023-07-31T12:43:28;2.87;;;1.90;;
7919;SDS011;18778;47.610;9.776;2023-07-31T12:45:54;2.63;;;1.97;;
7919;SDS011;18778;47.610;9.776;2023-07-31T12:48:23;3.43;;;2.03;;
7919;SDS011;18778;47.610;9.776;2023-07-31T12:50:48;3.57;;;2.33;;
7919;SDS011;18778;47.610;9.776;2023-07-31T12:53:17;3.47;;;2.00;;
7919;SDS011;18778;47.610;9.776;2023-07-31T12:55:42;4.27;;;1.83;;
7919;SDS011;18778;47.610;9.776;2023-07-31T12:58:08;2.77;;;1.90;;
7919;SDS011;18778;47.610;9.776;2023-07-31T13:00:34;2.37;;;1.97;;
7919;SDS011;18778;47.610;9.776;2023-07-31T13:03:00;6.33;;;2.40;;
7919;SDS011;18778;47.610;9.776;2023-07-31T13:05:26;4.73;;;2.20;;
7919;SDS011;18778;47.610;9.776;2023-07-31T13:07:52;8.17;;;2.87;;
7919;SDS011;18778;47.610;9.776;2023-07-31T13:10:18;4.37;;;1.60;;
7919;SDS011;18778;47.610;9.776;2023-07-31T13:12:44;5.40;;;2.50;;
7919;SDS011;18778;47.610;9.776;2023-07-31T13:15:10;3.77;;;2.00;;
7919;SDS011;18778;47.610;9.776;2023-07-31T13:17:36;5.60;;;2.23;;
7919;SDS011;18778;47.610;9.776;2023-07-31T13:20:02;3.57;;;1.77;;
7919;SDS011;18778;47.610;9.776;2023-07-31T13:22:28;3.17;;;2.20;;
7919;SDS011;18778;47.610;9.776;2023-07-31T13:24:54;2.13;;;1.70;;
7919;SDS011;18778;47.610;9.776;2023-07-31T13:27:20;3.03;;;2.10;;
7919;SDS011;18778;47.610;9.776;2023-07-31T13:29:47;3.27;;;1.93;;
7919;SDS011;18778;47.610;9.776;2023-07-31T13:32:13;2.67;;;1.70;;
7919;SDS011;18778;47.610;9.776;2023-07-31T13:34:40;2.43;;;1.90;;
7919;SDS011;18778;47.610;9.776;2023-07-31T13:37:06;2.23;;;1.83;;
7919;SDS011;18778;47.610;9.776;2023-07-31T13:39:31;2.37;;;1.70;;
7919;SDS011;18778;47.610;9.776;2023-07-31T13:41:58;2.60;;;2.00;;
7919;SDS011;18778;47.610;9.776;2023-07-31T13:44:24;4.67;;;2.10;;
7919;SDS011;18778;47.610;9.776;2023-07-31T13:46:49;2.07;;;1.87;;
7919;SDS011;18778;47.610;9.776;2023-07-31T13:49:16;3.57;;;1.83;;
7919;SDS011;18778;47.610;9.776;2023-07-31T13:51:41;3.37;;;1.93;;
7919;SDS011;18778;47.610;9.776;2023-07-31T13:54:07;2.87;;;2.10;;
7919;SDS011;18778;47.610;9.776;2023-07-31T13:56:33;3.58;;;1.80;;
7919;SDS011;18778;47.610;9.776;2023-07-31T13:58:58;3.08;;;1.90;;
7919;SDS011;18778;47.610;9.776;2023-07-31T14:01:26;3.13;;;1.73;;
7919;SDS011;18778;47.610;9.776;2023-07-31T14:03:52;1.83;;;1.50;;
7919;SDS011;18778;47.610;9.776;2023-07-31T14:06:17;1.93;;;1.63;;
7919;SDS011;18778;47.610;9.776;2023-07-31T14:08:43;3.07;;;1.80;;
7919;SDS011;18778;47.610;9.776;2023-07-31T14:11:09;1.97;;;1.73;;
7919;SDS011;18778;47.610;9.776;2023-07-31T14:13:35;2.70;;;1.80;;
7919;SDS011;18778;47.610;9.776;2023-07-31T14:16:01;3.37;;;1.90;;
7919;SDS011;18778;47.610;9.776;2023-07-31T14:18:27;1.97;;;1.87;;
7919;SDS011;18778;47.610;9.776;2023-07-31T14:20:52;3.33;;;2.23;;
7919;SDS011;18778;47.610;9.776;2023-07-31T14:23:18;2.83;;;1.90;;
7919;SDS011;18778;47.610;9.776;2023-07-31T14:25:45;3.30;;;1.83;;
7919;SDS011;18778;47.610;9.776;2023-07-31T14:28:11;2.03;;;1.83;;
7919;SDS011;18778;47.610;9.776;2023-07-31T14:30:36;3.17;;;1.80;;
7919;SDS011;18778;47.610;9.776;2023-07-31T14:33:02;2.43;;;1.87;;
7919;SDS011;18778;47.610;9.776;2023-07-31T14:35:28;3.00;;;1.80;;
7919;SDS011;18778;47.610;9.776;2023-07-31T14:37:53;2.40;;;1.90;;
7919;SDS011;18778;47.610;9.776;2023-07-31T14:40:19;2.10;;;1.80;;
7919;SDS011;18778;47.610;9.776;2023-07-31T14:42:45;2.53;;;1.90;;
7919;SDS011;18778;47.610;9.776;2023-07-31T14:45:11;2.90;;;1.63;;
7919;SDS011;18778;47.610;9.776;2023-07-31T14:47:37;3.43;;;1.70;;
7919;SDS011;18778;47.610;9.776;2023-07-31T14:50:03;2.63;;;1.60;;
7919;SDS011;18778;47.610;9.776;2023-07-31T14:52:28;2.07;;;1.60;;
7919;SDS011;18778;47.610;9.776;2023-07-31T14:54:54;5.90;;;1.73;;
7919;SDS011;18778;47.610;9.776;2023-07-31T14:57:20;2.10;;;1.90;;
7919;SDS011;18778;47.610;9.776;2023-07-31T14:59:46;2.50;;;1.55;;
7919;SDS011;18778;47.610;9.776;2023-07-31T15:02:12;2.63;;;1.50;;
7919;SDS011;18778;47.610;9.776;2023-07-31T15:04:37;4.03;;;1.60;;
7919;SDS011;18778;47.610;9.776;2023-07-31T15:07:03;3.67;;;1.75;;
7919;SDS011;18778;47.610;9.776;2023-07-31T15:09:29;2.90;;;1.70;;
7919;SDS011;18778;47.610;9.776;2023-07-31T15:11:55;2.15;;;1.60;;
7919;SDS011;18778;47.610;9.776;2023-07-31T15:14:21;2.47;;;1.50;;
7919;SDS011;18778;47.610;9.776;2023-07-31T15:16:47;3.85;;;1.73;;